Terminal Aerodrome Forecast
Issued by NWS

Home | Current Version | Previous Version | Text Only | Print | Product List | Glossary On
Versions: 1 2 3 4 5 6 7 8 9 10 11 12 13 14 15 16 17 18 19 20 21 22
000
FTUS44 KHGX 162052 AAB
TAFUTS
TAF AMD
KUTS 162052Z 1621/1718 34008G18KT P6SM OVC080
      TEMPO 1621/1623 -SHSN
     FM162300 36015KT P6SM OVC090
     FM170100 36008KT P6SM BKN100
     FM170600 36005KT P6SM SKC=

USA.gov is the U.S. government's official web portal to all federal, state and local government web resources and services.